Time;durP1;ratioP1;P1;durP2;ratioP2;P2;SDS_P1;SDS_P2;PMS_P1;PMS_P2;Temp;Humidity;BMP_temperature;BMP_pressure;BME280_temperature;BME280_humidity;BME280_pressure;Samples;Min_cycle;Max_cycle;Signal;HPM_P1;HPM_P2
2023/05/12 00:01:00;;;;;;;1.40;0.63;;;11.00;99.90;;;;;;4897039;29;20276;-59
2023/05/12 00:03:27;;;;;;;1.80;0.40;;;11.00;99.90;;;;;;4897966;29;20285;-59
2023/05/12 00:05:55;;;;;;;0.60;0.60;;;11.00;99.90;;;;;;4897621;29;20653;-59
2023/05/12 00:08:41;;;;;;;1.40;0.80;;;11.00;99.90;;;;;;4892061;29;20746;-59
2023/05/12 00:11:08;;;;;;;0.50;0.50;;;11.00;99.90;;;;;;4898535;29;20607;-59
2023/05/12 00:13:35;;;;;;;0.63;0.50;;;11.00;99.90;;;;;;4897952;29;20229;-59
2023/05/12 00:16:03;;;;;;;0.90;0.87;;;10.90;99.90;;;;;;4894651;29;20725;-59
2023/05/12 00:18:30;;;;;;;0.97;0.97;;;10.90;99.90;;;;;;4898194;29;20274;-59
2023/05/12 00:20:58;;;;;;;0.63;0.57;;;10.90;99.90;;;;;;4898350;29;20218;-59
2023/05/12 00:23:25;;;;;;;0.87;0.70;;;10.90;99.90;;;;;;4893451;29;20646;-59
2023/05/12 00:25:52;;;;;;;1.40;1.03;;;11.00;99.90;;;;;;4893360;29;20691;-60
2023/05/12 00:28:20;;;;;;;2.33;0.87;;;10.90;99.90;;;;;;4896381;29;20219;-59
2023/05/12 00:30:47;;;;;;;1.73;0.70;;;10.90;99.90;;;;;;4897142;29;20589;-59
2023/05/12 00:33:15;;;;;;;0.60;0.60;;;11.00;99.90;;;;;;4896471;29;20313;-59
2023/05/12 00:35:44;;;;;;;0.67;0.67;;;11.00;99.90;;;;;;4897755;29;20305;-59
2023/05/12 00:38:13;;;;;;;1.50;0.77;;;11.00;99.90;;;;;;4896934;29;20220;-59
2023/05/12 00:40:40;;;;;;;0.80;0.80;;;11.00;99.90;;;;;;4896568;29;20962;-59
2023/05/12 00:43:08;;;;;;;0.90;0.77;;;11.00;99.90;;;;;;4896218;29;20222;-59
2023/05/12 00:45:35;;;;;;;0.63;0.63;;;11.00;99.90;;;;;;4897638;29;20228;-59
2023/05/12 00:48:04;;;;;;;1.30;0.60;;;11.00;99.90;;;;;;4897771;29;20210;-59
2023/05/12 00:50:31;;;;;;;0.60;0.60;;;11.00;99.90;;;;;;4893037;29;20222;-60
2023/05/12 00:53:00;;;;;;;1.07;0.40;;;11.00;99.90;;;;;;4893350;29;20232;-59
2023/05/12 00:55:29;;;;;;;0.60;0.60;;;11.00;99.90;;;;;;4896909;29;20282;-59
2023/05/12 00:57:56;;;;;;;0.47;0.47;;;11.00;99.90;;;;;;4897566;29;20203;-59
2023/05/12 01:00:23;;;;;;;0.50;0.50;;;11.00;99.90;;;;;;4888525;29;20283;-59
2023/05/12 01:02:50;;;;;;;0.63;0.63;;;10.90;99.90;;;;;;4896985;29;20636;-59
2023/05/12 01:05:18;;;;;;;0.60;0.60;;;10.90;99.90;;;;;;4896046;29;20277;-59
2023/05/12 01:07:47;;;;;;;0.40;0.40;;;10.90;99.90;;;;;;4895946;29;20230;-59
2023/05/12 01:10:18;;;;;;;0.77;0.67;;;10.90;99.90;;;;;;4897369;29;20226;-59
2023/05/12 01:12:47;;;;;;;0.60;0.60;;;10.90;99.90;;;;;;4891548;29;20227;-60
2023/05/12 01:15:14;;;;;;;0.50;0.50;;;11.00;99.90;;;;;;4897050;29;20213;-59
2023/05/12 01:17:45;;;;;;;0.63;0.63;;;11.10;99.90;;;;;;4894458;29;20309;-59
2023/05/12 01:20:14;;;;;;;0.50;0.50;;;11.20;99.90;;;;;;4897106;29;20210;-59
2023/05/12 01:22:42;;;;;;;0.40;0.40;;;11.10;99.90;;;;;;4895657;29;20226;-59
2023/05/12 01:25:11;;;;;;;0.60;0.60;;;11.10;99.90;;;;;;4897283;29;20293;-59
2023/05/12 01:27:41;;;;;;;0.73;0.50;;;11.10;99.90;;;;;;4891632;29;20230;-59
2023/05/12 01:30:09;;;;;;;0.70;0.70;;;11.10;99.90;;;;;;4892990;29;20585;-59
2023/05/12 01:32:39;;;;;;;0.73;0.73;;;11.10;99.90;;;;;;4894060;29;20720;-59
2023/05/12 01:35:07;;;;;;;0.40;0.40;;;11.10;99.90;;;;;;4895294;29;20202;-59
2023/05/12 01:37:36;;;;;;;0.60;0.60;;;11.10;99.90;;;;;;4895727;29;20234;-59
2023/05/12 01:40:04;;;;;;;1.70;0.80;;;11.10;99.90;;;;;;4896705;29;20206;-59
2023/05/12 01:42:34;;;;;;;0.70;0.70;;;11.00;99.90;;;;;;4894666;29;20651;-59
2023/05/12 01:45:03;;;;;;;0.97;0.87;;;11.00;99.90;;;;;;4881392;29;20218;-59
2023/05/12 01:47:30;;;;;;;1.13;1.03;;;10.90;99.90;;;;;;4877801;29;20222;-59
2023/05/12 01:49:57;;;;;;;0.80;0.80;;;10.90;99.90;;;;;;4881661;29;20211;-59
2023/05/12 01:52:24;;;;;;;1.13;0.63;;;10.90;99.90;;;;;;4893445;29;20233;-60
2023/05/12 01:54:52;;;;;;;1.10;1.10;;;10.90;99.90;;;;;;4894903;29;20313;-59
2023/05/12 01:57:19;;;;;;;1.00;1.00;;;10.90;99.90;;;;;;4895731;29;20210;-59
2023/05/12 01:59:46;;;;;;;3.90;1.40;;;10.90;99.90;;;;;;4896394;29;20303;-59
2023/05/12 02:02:14;;;;;;;1.60;1.00;;;10.90;99.90;;;;;;4896353;29;20226;-59
2023/05/12 02:04:42;;;;;;;5.73;1.80;;;10.90;99.90;;;;;;4895056;29;20218;-61
2023/05/12 02:07:09;;;;;;;1.50;0.83;;;10.90;99.90;;;;;;4894840;29;20320;-59
2023/05/12 02:09:36;;;;;;;0.63;0.60;;;11.00;99.90;;;;;;4896380;29;20233;-59
2023/05/12 02:12:04;;;;;;;0.87;0.87;;;11.10;99.90;;;;;;4887381;29;20377;-59
2023/05/12 02:14:31;;;;;;;1.90;1.00;;;11.10;99.90;;;;;;4896023;29;20261;-59
2023/05/12 02:16:58;;;;;;;2.40;1.00;;;11.10;99.90;;;;;;4897453;29;20213;-59
2023/05/12 02:19:26;;;;;;;1.57;0.97;;;11.00;99.90;;;;;;4901747;29;20698;-59
2023/05/12 02:21:53;;;;;;;0.90;0.90;;;11.00;99.90;;;;;;4901661;29;20272;-59
2023/05/12 02:24:20;;;;;;;1.53;1.27;;;11.00;99.90;;;;;;4902300;29;20217;-59
2023/05/12 02:26:47;;;;;;;2.23;2.03;;;11.00;99.90;;;;;;4902399;29;20293;-61
2023/05/12 02:29:14;;;;;;;1.10;1.10;;;11.00;99.90;;;;;;4901292;29;20252;-59
2023/05/12 02:31:41;;;;;;;1.17;1.17;;;10.90;99.90;;;;;;4901802;29;20209;-59
2023/05/12 02:34:08;;;;;;;1.30;1.30;;;10.90;99.90;;;;;;4901819;29;20676;-59
2023/05/12 02:36:37;;;;;;;2.33;1.97;;;10.90;99.90;;;;;;4902601;29;20205;-59
2023/05/12 02:39:04;;;;;;;1.60;1.60;;;10.90;99.90;;;;;;4900350;29;20229;-59
2023/05/12 02:41:31;;;;;;;1.47;1.47;;;10.80;99.90;;;;;;4897860;29;20620;-59
2023/05/12 02:43:58;;;;;;;1.30;1.30;;;10.80;99.90;;;;;;4901865;29;20286;-59
2023/05/12 02:46:25;;;;;;;1.97;1.80;;;10.80;99.90;;;;;;4893146;29;20213;-59
2023/05/12 02:48:52;;;;;;;1.70;1.67;;;10.80;99.90;;;;;;4902163;29;20844;-59
2023/05/12 02:51:19;;;;;;;1.30;1.30;;;10.80;99.90;;;;;;4902365;29;20210;-59
2023/05/12 02:53:47;;;;;;;1.27;1.27;;;10.80;99.90;;;;;;4901537;29;20300;-59
2023/05/12 02:56:15;;;;;;;1.70;1.60;;;10.80;99.90;;;;;;4895032;29;20217;-59
2023/05/12 02:58:42;;;;;;;1.20;1.10;;;10.80;99.90;;;;;;4901175;29;20233;-59
2023/05/12 03:01:10;;;;;;;1.30;1.30;;;10.80;99.90;;;;;;4899826;29;20206;-59
2023/05/12 03:03:37;;;;;;;1.47;1.40;;;10.80;99.90;;;;;;4901969;29;20320;-59
2023/05/12 03:06:04;;;;;;;1.97;1.87;;;10.70;99.90;;;;;;4902103;29;20718;-59
2023/05/12 03:08:31;;;;;;;1.23;1.10;;;10.70;99.90;;;;;;4900933;29;20225;-59
2023/05/12 03:11:00;;;;;;;2.70;1.90;;;10.70;99.90;;;;;;4902180;29;20295;-59
2023/05/12 03:13:27;;;;;;;0.73;0.73;;;10.70;99.90;;;;;;4900012;29;20293;-59
2023/05/12 03:15:54;;;;;;;1.17;1.07;;;10.60;99.90;;;;;;4900679;29;20274;-59
2023/05/12 03:18:21;;;;;;;1.00;1.00;;;10.60;99.90;;;;;;4902110;29;20369;-59
2023/05/12 03:20:48;;;;;;;1.70;1.60;;;10.60;99.90;;;;;;4901013;29;20254;-59
2023/05/12 03:23:15;;;;;;;1.40;1.30;;;10.50;99.90;;;;;;4901755;29;20225;-59
2023/05/12 03:25:42;;;;;;;1.53;1.10;;;10.50;99.90;;;;;;4902067;29;20623;-59
2023/05/12 03:28:11;;;;;;;1.60;1.23;;;10.50;99.90;;;;;;4898496;29;20251;-59
2023/05/12 03:30:38;;;;;;;0.80;0.80;;;10.50;99.90;;;;;;4897446;29;20583;-59
2023/05/12 03:33:05;;;;;;;1.73;1.67;;;10.50;99.90;;;;;;4896500;29;20245;-60
2023/05/12 03:35:32;;;;;;;1.30;1.20;;;10.50;99.90;;;;;;4897283;29;20214;-59
2023/05/12 03:37:59;;;;;;;1.30;1.20;;;10.50;99.90;;;;;;4897240;29;20205;-59
2023/05/12 03:40:26;;;;;;;1.00;1.00;;;10.50;99.90;;;;;;4897399;29;20202;-59
2023/05/12 03:42:53;;;;;;;1.50;1.40;;;10.50;99.90;;;;;;4896460;29;20237;-59
2023/05/12 03:45:22;;;;;;;1.17;1.03;;;10.50;99.90;;;;;;4894949;29;20278;-59
2023/05/12 03:47:49;;;;;;;1.87;0.90;;;10.50;99.90;;;;;;4896578;29;20229;-59
2023/05/12 03:50:16;;;;;;;1.20;1.20;;;10.50;99.90;;;;;;4896607;29;20206;-59
2023/05/12 03:52:43;;;;;;;2.17;1.33;;;10.50;99.90;;;;;;4896992;29;20289;-59
2023/05/12 03:55:10;;;;;;;1.60;1.50;;;10.50;99.90;;;;;;4897416;29;20666;-59
2023/05/12 03:57:37;;;;;;;1.30;1.20;;;10.50;99.90;;;;;;4898065;29;20203;-59
2023/05/12 04:00:05;;;;;;;1.60;1.47;;;10.50;99.90;;;;;;4896829;29;20207;-59
2023/05/12 04:02:36;;;;;;;1.20;1.20;;;10.50;99.90;;;;;;4895246;29;20666;-59
2023/05/12 04:05:07;;;;;;;1.40;1.40;;;10.60;99.90;;;;;;4897348;29;20202;-58
2023/05/12 04:07:37;;;;;;;1.10;1.10;;;10.60;99.90;;;;;;4897295;29;20225;-59
2023/05/12 04:10:04;;;;;;;1.87;1.60;;;10.60;99.90;;;;;;4897307;29;20205;-59
2023/05/12 04:12:35;;;;;;;2.13;2.00;;;10.70;99.90;;;;;;4897364;29;20224;-59
2023/05/12 04:15:02;;;;;;;2.60;2.50;;;10.70;99.90;;;;;;4896459;29;20203;-60
2023/05/12 04:17:29;;;;;;;2.10;1.80;;;10.70;99.90;;;;;;4896114;29;20669;-59
2023/05/12 04:19:58;;;;;;;2.40;2.30;;;10.70;99.90;;;;;;4896677;29;20342;-59
2023/05/12 04:22:25;;;;;;;1.60;1.60;;;10.70;99.90;;;;;;4893820;29;20219;-59
2023/05/12 04:24:52;;;;;;;1.50;1.50;;;10.70;99.90;;;;;;4895517;29;20209;-59
2023/05/12 04:27:19;;;;;;;1.43;1.43;;;10.70;99.90;;;;;;4894404;29;20274;-59
2023/05/12 04:29:46;;;;;;;2.37;1.70;;;10.80;99.90;;;;;;4896767;29;20217;-59
2023/05/12 04:32:13;;;;;;;1.67;1.57;;;10.80;99.90;;;;;;4897825;29;20242;-59
2023/05/12 04:34:40;;;;;;;1.90;1.80;;;10.80;99.90;;;;;;4897894;29;20210;-59
2023/05/12 04:37:08;;;;;;;2.20;2.00;;;10.80;99.90;;;;;;4894864;29;20233;-59
2023/05/12 04:39:35;;;;;;;1.73;1.63;;;10.80;99.90;;;;;;4893089;29;20217;-59
2023/05/12 04:42:03;;;;;;;11.00;3.83;;;10.90;99.90;;;;;;4909225;29;20221;-59
2023/05/12 04:44:30;;;;;;;3.03;1.60;;;11.00;99.90;;;;;;4895536;29;20775;-59
2023/05/12 04:46:57;;;;;;;2.37;1.97;;;11.10;99.90;;;;;;4890351;29;20206;-59
2023/05/12 04:49:24;;;;;;;3.90;1.87;;;11.20;99.90;;;;;;4887045;29;20270;-59
2023/05/12 04:51:51;;;;;;;1.90;1.80;;;11.30;99.90;;;;;;4884604;29;20214;-59
2023/05/12 04:54:19;;;;;;;2.57;2.37;;;11.30;99.90;;;;;;4892081;29;20210;-59
2023/05/12 04:56:46;;;;;;;2.40;2.20;;;11.40;99.90;;;;;;4891756;29;20207;-59
2023/05/12 04:59:14;;;;;;;2.30;1.93;;;11.50;99.90;;;;;;4895514;29;20206;-59
2023/05/12 05:01:41;;;;;;;2.23;2.13;;;11.60;99.90;;;;;;4889759;29;20210;-59
2023/05/12 05:04:08;;;;;;;2.63;2.43;;;11.70;99.90;;;;;;4895943;29;20308;-59
2023/05/12 05:06:35;;;;;;;1.80;1.40;;;11.70;99.90;;;;;;4896118;29;20212;-59
2023/05/12 05:09:03;;;;;;;2.13;1.93;;;11.70;99.90;;;;;;4893055;29;20292;-59
2023/05/12 05:11:31;;;;;;;1.97;1.87;;;11.80;99.90;;;;;;4895782;29;20211;-59
2023/05/12 05:13:58;;;;;;;1.33;1.20;;;11.80;99.90;;;;;;4894271;29;20226;-59
2023/05/12 05:16:25;;;;;;;2.00;1.43;;;11.90;99.90;;;;;;4888917;29;20678;-59
2023/05/12 05:18:52;;;;;;;2.40;1.73;;;11.90;99.90;;;;;;4895728;29;20262;-59
2023/05/12 05:21:19;;;;;;;1.47;1.37;;;12.10;99.90;;;;;;4891768;29;20211;-59
2023/05/12 05:23:46;;;;;;;1.90;1.77;;;12.20;99.90;;;;;;4894863;29;20786;-60
2023/05/12 05:26:13;;;;;;;0.83;0.83;;;12.30;99.90;;;;;;4896048;29;20289;-59
2023/05/12 05:28:41;;;;;;;1.93;1.83;;;12.50;99.90;;;;;;4896758;29;20272;-59
2023/05/12 05:31:08;;;;;;;1.53;1.43;;;12.60;99.90;;;;;;4894757;29;20341;-60
2023/05/12 05:33:35;;;;;;;1.10;1.10;;;12.60;99.90;;;;;;4896046;29;20318;-60
2023/05/12 05:36:02;;;;;;;1.87;1.73;;;12.70;99.90;;;;;;4896842;29;20211;-60
2023/05/12 05:38:29;;;;;;;1.57;1.47;;;12.80;99.90;;;;;;4896954;29;20203;-59
2023/05/12 05:40:56;;;;;;;1.00;1.00;;;12.70;99.90;;;;;;4896460;29;20262;-60
2023/05/12 05:43:24;;;;;;;1.03;1.00;;;13.00;99.90;;;;;;4893794;29;20767;-59
2023/05/12 05:45:54;;;;;;;1.00;1.00;;;13.10;99.90;;;;;;4896300;29;20213;-59
2023/05/12 05:48:21;;;;;;;1.17;1.17;;;13.10;99.90;;;;;;4896251;29;20215;-59
2023/05/12 05:50:49;;;;;;;1.60;1.07;;;13.00;99.90;;;;;;4895543;29;20712;-59
2023/05/12 05:53:17;;;;;;;1.67;1.53;;;13.00;99.90;;;;;;4895342;29;20637;-60
2023/05/12 05:55:44;;;;;;;1.47;1.37;;;13.00;99.90;;;;;;4889992;29;20203;-60
2023/05/12 05:58:11;;;;;;;1.83;1.83;;;13.30;99.90;;;;;;4887590;29;20275;-59
2023/05/12 06:00:38;;;;;;;2.00;1.90;;;13.30;99.90;;;;;;4886280;29;20212;-59
2023/05/12 06:03:07;;;;;;;2.87;2.53;;;13.30;99.90;;;;;;4893690;29;20231;-59
2023/05/12 06:05:34;;;;;;;1.97;1.87;;;13.50;99.90;;;;;;4890653;29;20274;-60
2023/05/12 06:08:01;;;;;;;2.30;2.20;;;13.60;99.90;;;;;;4893016;29;20281;-59
2023/05/12 06:10:29;;;;;;;2.40;2.20;;;13.50;99.90;;;;;;4892327;29;20880;-69
2023/05/12 06:12:56;;;;;;;1.40;1.30;;;13.50;99.90;;;;;;4894721;29;20297;-65
2023/05/12 06:15:23;;;;;;;1.83;1.73;;;13.60;99.90;;;;;;4894651;29;20199;-67
2023/05/12 06:17:50;;;;;;;2.60;2.47;;;13.60;99.90;;;;;;4895077;29;20203;-66
2023/05/12 06:20:19;;;;;;;2.10;2.00;;;13.70;99.90;;;;;;4893741;29;20696;-67
2023/05/12 06:22:46;;;;;;;2.40;2.30;;;13.80;99.90;;;;;;4894751;29;20956;-67
2023/05/12 06:25:13;;;;;;;1.80;1.70;;;13.80;99.90;;;;;;4894970;29;20278;-68
2023/05/12 06:27:41;;;;;;;1.97;1.87;;;13.70;99.90;;;;;;4893388;29;20237;-68
2023/05/12 06:30:09;;;;;;;2.40;2.20;;;13.80;99.90;;;;;;4897805;29;20222;-67
2023/05/12 06:32:37;;;;;;;1.63;1.53;;;14.10;99.90;;;;;;4903297;29;20226;-68
2023/05/12 06:35:05;;;;;;;1.30;1.30;;;14.20;99.90;;;;;;4896248;29;20211;-71
2023/05/12 06:37:37;;;;;;;1.87;1.77;;;14.10;99.90;;;;;;4894364;29;20211;-71
2023/05/12 06:40:06;;;;;;;1.97;1.97;;;14.10;99.90;;;;;;4894921;29;20210;-67
2023/05/12 06:42:36;;;;;;;2.13;1.93;;;14.10;99.90;;;;;;4894001;29;20294;-72
2023/05/12 06:45:04;;;;;;;2.33;1.60;;;14.10;99.90;;;;;;4894316;29;20568;-71
2023/05/12 06:47:30;;;;;;;1.23;1.23;;;14.10;99.90;;;;;;4893608;29;20209;-72
2023/05/12 06:49:57;;;;;;;1.73;1.17;;;14.30;99.90;;;;;;4891909;29;20211;-67
2023/05/12 06:52:24;;;;;;;3.23;1.23;;;14.30;99.90;;;;;;4891749;29;20237;-65
2023/05/12 06:54:53;;;;;;;1.03;0.83;;;14.40;99.90;;;;;;4892730;29;20761;-64
2023/05/12 06:57:20;;;;;;;0.90;0.90;;;14.60;99.90;;;;;;4891130;29;20207;-68
2023/05/12 06:59:47;;;;;;;1.20;1.10;;;14.80;99.90;;;;;;4892651;29;20204;-67
2023/05/12 07:02:14;;;;;;;1.13;1.10;;;15.00;99.90;;;;;;4893172;29;20223;-65
2023/05/12 07:04:40;;;;;;;1.27;1.27;;;15.40;99.90;;;;;;4896692;29;20259;-66
2023/05/12 07:07:07;;;;;;;1.87;1.77;;;16.00;99.90;;;;;;4894160;29;20207;-66
2023/05/12 07:09:34;;;;;;;1.20;1.10;;;16.80;99.90;;;;;;4890185;29;20282;-68
2023/05/12 07:12:04;;;;;;;1.20;1.20;;;17.60;99.90;;;;;;4888604;29;20232;-70
2023/05/12 07:14:31;;;;;;;1.30;1.30;;;18.50;99.90;;;;;;4892510;29;20216;-66
2023/05/12 07:16:58;;;;;;;1.20;1.20;;;19.00;99.90;;;;;;4895030;29;20211;-66
2023/05/12 07:19:25;;;;;;;1.53;1.10;;;20.10;99.90;;;;;;4898032;29;20207;-64
2023/05/12 07:21:52;;;;;;;1.20;0.80;;;20.80;99.90;;;;;;4896550;29;20219;-64
2023/05/12 07:24:19;;;;;;;1.37;1.37;;;21.30;99.90;;;;;;4897247;29;20351;-68
2023/05/12 07:26:46;;;;;;;1.00;1.00;;;21.20;99.90;;;;;;4897254;29;20670;-70
2023/05/12 07:29:14;;;;;;;1.20;1.10;;;21.00;99.90;;;;;;4897140;29;20283;-73
2023/05/12 07:31:41;;;;;;;0.90;0.90;;;21.40;99.90;;;;;;4897053;29;20203;-74
2023/05/12 07:34:08;;;;;;;1.00;1.00;;;21.80;99.90;;;;;;4897209;29;20215;-73
2023/05/12 07:36:35;;;;;;;2.67;1.20;;;22.50;99.90;;;;;;4896176;29;20199;-73
2023/05/12 07:39:02;;;;;;;1.30;1.30;;;23.00;99.90;;;;;;4897105;29;20677;-73
2023/05/12 07:41:29;;;;;;;1.00;1.00;;;22.20;99.90;;;;;;4897209;29;20207;-73
2023/05/12 07:43:56;;;;;;;0.93;0.93;;;21.90;99.90;;;;;;4896894;29;20278;-68
2023/05/12 07:46:24;;;;;;;1.57;1.53;;;21.90;99.90;;;;;;4897056;29;21760;-70
2023/05/12 07:48:51;;;;;;;1.43;1.33;;;22.10;99.90;;;;;;4897047;29;20657;-68
2023/05/12 07:51:18;;;;;;;1.03;1.03;;;21.60;99.90;;;;;;4897033;29;20211;-60
2023/05/12 07:53:45;;;;;;;1.00;0.87;;;20.10;99.90;;;;;;4896299;29;20258;-60
2023/05/12 07:56:12;;;;;;;1.30;1.30;;;19.10;99.90;;;;;;4895731;29;20259;-60
2023/05/12 07:58:39;;;;;;;2.40;2.30;;;18.00;99.90;;;;;;4895245;29;20199;-60
2023/05/12 08:01:07;;;;;;;2.77;2.67;;;17.10;99.90;;;;;;4898284;29;20682;-59
2023/05/12 08:03:36;;;;;;;6.67;2.83;;;16.30;99.90;;;;;;4897122;29;20312;-59
2023/05/12 08:06:05;;;;;;;2.77;2.67;;;16.00;99.90;;;;;;4888209;29;20633;-59
2023/05/12 08:08:32;;;;;;;1.97;1.97;;;15.60;99.90;;;;;;4890271;29;20258;-60
2023/05/12 08:10:59;;;;;;;3.60;3.40;;;15.70;99.90;;;;;;4889329;29;20586;-60
2023/05/12 08:13:26;;;;;;;2.90;2.70;;;15.70;99.90;;;;;;4890751;29;20725;-60
2023/05/12 08:15:53;;;;;;;2.87;2.67;;;15.60;99.90;;;;;;4897155;29;20670;-61
2023/05/12 08:18:20;;;;;;;2.07;2.07;;;15.50;99.90;;;;;;4898107;29;20204;-60
2023/05/12 08:20:49;;;;;;;3.97;2.40;;;15.40;99.90;;;;;;4898189;29;20283;-60
2023/05/12 08:23:16;;;;;;;3.00;2.57;;;15.30;99.90;;;;;;4895093;29;20233;-60
2023/05/12 08:25:44;;;;;;;3.43;3.33;;;15.10;99.90;;;;;;4891953;29;20215;-60
2023/05/12 08:28:11;;;;;;;3.47;3.37;;;15.20;99.90;;;;;;4896864;29;20276;-59
2023/05/12 08:30:38;;;;;;;4.43;4.03;;;15.20;99.90;;;;;;4892390;29;20537;-60
2023/05/12 08:33:05;;;;;;;4.17;3.80;;;15.20;99.90;;;;;;4894299;29;20231;-60
2023/05/12 08:35:32;;;;;;;4.00;3.73;;;15.20;99.90;;;;;;4897711;29;20263;-59
2023/05/12 08:38:02;;;;;;;4.37;4.07;;;14.90;99.90;;;;;;4897716;29;20727;-61
2023/05/12 08:40:31;;;;;;;3.70;3.43;;;14.80;99.90;;;;;;4897639;29;20747;-59
2023/05/12 08:43:07;;;;;;;3.40;3.20;;;14.70;99.90;;;;;;4896538;29;20239;-59
2023/05/12 08:45:38;;;;;;;4.23;3.93;;;14.60;99.90;;;;;;4888838;29;20203;-60
2023/05/12 08:48:08;;;;;;;4.50;4.20;;;14.60;99.90;;;;;;4897544;29;20208;-60
2023/05/12 08:50:36;;;;;;;4.47;4.27;;;14.60;99.90;;;;;;4898369;29;20223;-59
2023/05/12 08:53:10;;;;;;;4.17;3.87;;;14.60;99.90;;;;;;4897366;29;20291;-59
2023/05/12 08:55:39;;;;;;;3.50;3.30;;;14.70;99.90;;;;;;4897461;29;20213;-59
2023/05/12 08:58:08;;;;;;;3.37;3.17;;;14.90;99.90;;;;;;4897429;29;20212;-60
2023/05/12 09:00:36;;;;;;;2.20;2.10;;;14.60;99.90;;;;;;4896315;29;20283;-59
2023/05/12 09:03:06;;;;;;;4.77;4.37;;;14.50;99.90;;;;;;4897075;29;20314;-60
2023/05/12 09:05:33;;;;;;;5.10;4.80;;;14.60;99.90;;;;;;4897217;29;20218;-59
2023/05/12 09:08:01;;;;;;;5.43;5.03;;;14.50;99.90;;;;;;4897259;29;20255;-59
2023/05/12 09:10:29;;;;;;;5.57;5.17;;;14.40;99.90;;;;;;4897102;29;20279;-60
2023/05/12 09:13:02;;;;;;;5.00;4.70;;;14.40;99.90;;;;;;4896681;29;20796;-59
2023/05/12 09:15:35;;;;;;;4.97;4.60;;;14.20;99.90;;;;;;4897242;29;20215;-59
2023/05/12 09:18:02;;;;;;;5.30;4.90;;;14.00;99.90;;;;;;4896813;29;20238;-60
2023/05/12 09:20:29;;;;;;;5.27;4.87;;;14.00;99.90;;;;;;4889370;29;20206;-60
2023/05/12 09:22:57;;;;;;;5.47;5.07;;;14.00;99.90;;;;;;4896590;29;20282;-59
2023/05/12 09:25:24;;;;;;;5.87;5.57;;;14.00;99.90;;;;;;4896598;29;20224;-59
2023/05/12 09:27:56;;;;;;;5.90;5.50;;;14.00;99.90;;;;;;4896704;29;20257;-60
2023/05/12 09:30:30;;;;;;;5.13;4.83;;;14.20;99.90;;;;;;4897026;29;20231;-60
2023/05/12 09:33:06;;;;;;;5.73;5.23;;;14.60;99.90;;;;;;4894638;29;20328;-60
2023/05/12 09:35:38;;;;;;;4.70;4.40;;;15.10;99.90;;;;;;4894739;29;20203;-60
2023/05/12 09:38:09;;;;;;;6.63;6.07;;;15.50;99.90;;;;;;4889106;29;20214;-60
2023/05/12 09:40:36;;;;;;;5.07;4.50;;;16.10;99.90;;;;;;4892697;29;20557;-60
2023/05/12 09:43:06;;;;;;;3.27;3.17;;;16.80;99.90;;;;;;4895991;29;20227;-60
2023/05/12 09:45:36;;;;;;;3.23;2.93;;;17.70;99.90;;;;;;4894224;29;20247;-60
2023/05/12 09:48:10;;;;;;;2.80;2.70;;;18.80;99.90;;;;;;4901389;29;20263;-60
2023/05/12 09:50:44;;;;;;;4.07;3.87;;;19.20;99.90;;;;;;4894543;29;20254;-60
2023/05/12 09:53:11;;;;;;;4.20;3.90;;;19.60;99.90;;;;;;4895920;29;20309;-60
2023/05/12 09:55:38;;;;;;;4.60;4.30;;;19.30;99.90;;;;;;4887603;29;20207;-60
2023/05/12 09:58:09;;;;;;;4.53;4.33;;;19.40;99.90;;;;;;4894511;29;20654;-60
2023/05/12 10:00:37;;;;;;;3.47;3.37;;;19.50;99.90;;;;;;4895087;29;20208;-60
2023/05/12 10:03:10;;;;;;;4.57;4.17;;;20.50;99.90;;;;;;4895732;29;20223;-60
2023/05/12 10:05:42;;;;;;;2.07;2.00;;;21.30;99.90;;;;;;4894247;29;20217;-60
2023/05/12 10:08:13;;;;;;;2.90;2.80;;;21.10;99.90;;;;;;4892156;29;20211;-60
2023/05/12 10:10:40;;;;;;;1.90;1.80;;;21.00;99.90;;;;;;4893840;29;20287;-60
2023/05/12 10:13:12;;;;;;;2.07;2.07;;;21.50;99.90;;;;;;4895712;29;20234;-59
2023/05/12 10:15:41;;;;;;;2.27;2.17;;;20.70;99.90;;;;;;4893462;29;20299;-60
2023/05/12 10:18:09;;;;;;;3.73;3.53;;;19.70;99.90;;;;;;4892693;29;20204;-61
2023/05/12 10:20:37;;;;;;;3.13;2.93;;;18.40;99.90;;;;;;4894157;29;20235;-59
2023/05/12 10:23:05;;;;;;;2.60;2.40;;;18.10;99.90;;;;;;4892498;29;20634;-60
2023/05/12 10:25:32;;;;;;;1.80;1.80;;;17.90;99.90;;;;;;4895342;29;20211;-60
2023/05/12 10:28:02;;;;;;;2.80;2.70;;;17.70;99.90;;;;;;4892067;29;20217;-61
2023/05/12 10:30:31;;;;;;;2.30;2.20;;;17.90;99.90;;;;;;4893278;29;20227;-62
2023/05/12 10:33:00;;;;;;;2.30;2.20;;;18.50;99.90;;;;;;4891227;29;20231;-59
2023/05/12 10:35:33;;;;;;;2.60;2.50;;;18.90;99.90;;;;;;4895443;29;20235;-59
2023/05/12 10:38:03;;;;;;;2.40;2.30;;;18.80;99.90;;;;;;4896629;29;20203;-59
2023/05/12 10:40:30;;;;;;;2.13;2.03;;;18.70;99.90;;;;;;4899660;29;20226;-58
2023/05/12 10:42:59;;;;;;;1.63;1.53;;;18.20;99.90;;;;;;4899314;29;20310;-59
2023/05/12 10:45:26;;;;;;;1.53;1.53;;;18.20;99.90;;;;;;4898892;29;20639;-62
2023/05/12 10:48:05;;;;;;;3.03;1.80;;;18.20;99.90;;;;;;4893286;29;20298;-59
2023/05/12 10:50:32;;;;;;;2.00;1.10;;;18.50;99.90;;;;;;4890016;29;20233;-60
2023/05/12 10:52:59;;;;;;;1.63;1.63;;;18.30;99.90;;;;;;4895352;29;20251;-58
2023/05/12 10:55:35;;;;;;;1.47;1.43;;;18.10;99.90;;;;;;4899422;29;20746;-61
2023/05/12 10:58:08;;;;;;;0.80;0.80;;;17.80;99.90;;;;;;4898017;29;20231;-60
2023/05/12 11:00:44;;;;;;;1.70;1.60;;;18.00;99.90;;;;;;4898171;29;20203;-60
2023/05/12 11:03:15;;;;;;;2.20;1.90;;;18.20;99.90;;;;;;4897640;29;20219;-63
2023/05/12 11:05:43;;;;;;;1.40;1.40;;;18.30;99.90;;;;;;4898589;29;20262;-68
2023/05/12 11:08:10;;;;;;;1.73;1.43;;;18.20;99.90;;;;;;4898011;29;20199;-68
2023/05/12 11:10:41;;;;;;;1.80;1.70;;;18.20;99.90;;;;;;4897887;29;20219;-66
2023/05/12 11:13:08;;;;;;;1.87;1.70;;;18.10;99.90;;;;;;4897537;29;20219;-69
2023/05/12 11:15:35;;;;;;;1.80;1.77;;;18.10;99.90;;;;;;4897828;29;20273;-69
2023/05/12 11:18:03;;;;;;;2.10;2.00;;;18.20;99.90;;;;;;4897535;29;20703;-69
2023/05/12 11:20:32;;;;;;;2.40;2.30;;;18.30;99.90;;;;;;4897869;29;20745;-73
2023/05/12 11:22:59;;;;;;;5.60;2.47;;;18.00;99.90;;;;;;4896896;29;20318;-71
2023/05/12 11:25:27;;;;;;;1.53;1.53;;;17.90;99.90;;;;;;4893008;29;20275;-71
2023/05/12 11:27:54;;;;;;;1.80;1.70;;;17.90;99.90;;;;;;4888104;29;20207;-71
2023/05/12 11:30:21;;;;;;;2.23;2.13;;;18.00;99.90;;;;;;4888405;29;20234;-71
2023/05/12 11:32:59;;;;;;;2.30;2.10;;;17.70;99.90;;;;;;4894927;29;20234;-69
2023/05/12 11:35:31;;;;;;;2.47;2.37;;;17.90;99.90;;;;;;4897298;29;20203;-74
2023/05/12 11:37:58;;;;;;;3.07;2.70;;;18.50;99.90;;;;;;4897947;29;20207;-73
2023/05/12 11:40:25;;;;;;;1.97;1.90;;;18.80;99.90;;;;;;4887986;29;20295;-76
2023/05/12 11:42:54;;;;;;;1.73;1.73;;;19.20;99.90;;;;;;4889949;29;20223;-74
2023/05/12 11:45:23;;;;;;;2.10;1.97;;;19.20;99.90;;;;;;4889288;29;20211;-63
2023/05/12 11:47:50;;;;;;;1.93;1.83;;;19.10;99.90;;;;;;4885295;29;20200;-67
2023/05/12 11:50:22;;;;;;;2.23;1.50;;;18.90;99.90;;;;;;4888142;29;20258;-67
2023/05/12 11:52:52;;;;;;;1.87;1.87;;;18.80;99.90;;;;;;4891076;29;20231;-69
2023/05/12 11:55:23;;;;;;;1.37;1.23;;;18.80;99.90;;;;;;4884098;29;20208;-69
2023/05/12 11:58:01;;;;;;;1.20;1.20;;;18.80;99.90;;;;;;4891895;29;20203;-71
2023/05/12 12:00:32;;;;;;;0.90;0.90;;;18.80;99.90;;;;;;4894414;29;20207;-74
2023/05/12 12:03:11;;;;;;;0.70;0.70;;;18.90;99.90;;;;;;4888940;29;20238;-69
2023/05/12 12:05:38;;;;;;;0.73;0.73;;;18.70;99.90;;;;;;4891815;29;20238;-73
2023/05/12 12:08:11;;;;;;;0.70;0.70;;;18.60;99.90;;;;;;4890096;29;20203;-64
2023/05/12 12:10:38;;;;;;;1.27;0.50;;;19.00;99.90;;;;;;4885492;29;20239;-67
2023/05/12 12:13:05;;;;;;;0.30;0.30;;;19.00;99.90;;;;;;4889197;29;20227;-64
2023/05/12 12:15:32;;;;;;;0.30;0.30;;;19.30;99.90;;;;;;4879626;29;20207;-67
2023/05/12 12:17:59;;;;;;;0.20;0.20;;;19.70;99.90;;;;;;4892032;29;20278;-65
2023/05/12 12:20:26;;;;;;;0.20;0.20;;;19.80;99.90;;;;;;4895118;29;20239;-63
2023/05/12 12:22:53;;;;;;;1.60;0.20;;;20.20;99.90;;;;;;4896875;29;20231;-63
2023/05/12 12:25:22;;;;;;;0.20;0.20;;;20.20;99.90;;;;;;4897970;29;20275;-62
2023/05/12 12:27:49;;;;;;;0.20;0.20;;;19.80;99.90;;;;;;4897826;29;20211;-63
2023/05/12 12:30:16;;;;;;;0.40;0.33;;;20.00;99.90;;;;;;4897109;29;20227;-62
2023/05/12 12:32:44;;;;;;;0.20;0.20;;;19.60;99.90;;;;;;4888462;29;20321;-63
2023/05/12 12:35:12;;;;;;;0.40;0.40;;;19.50;99.90;;;;;;4891986;29;20203;-63
2023/05/12 12:37:39;;;;;;;0.43;0.43;;;19.40;99.90;;;;;;4886447;29;20210;-65
2023/05/12 12:40:08;;;;;;;0.90;0.60;;;19.50;99.90;;;;;;4892740;29;20295;-63
2023/05/12 12:42:40;;;;;;;1.13;1.13;;;19.40;99.90;;;;;;4896258;29;20223;-63
2023/05/12 12:45:08;;;;;;;0.80;0.80;;;19.20;99.90;;;;;;4897098;29;20203;-63
2023/05/12 12:47:36;;;;;;;0.90;0.90;;;19.10;99.90;;;;;;4895047;29;20238;-63
2023/05/12 12:50:03;;;;;;;0.60;0.60;;;18.90;99.90;;;;;;4897180;29;20570;-64
2023/05/12 12:52:31;;;;;;;1.60;1.60;;;19.20;99.90;;;;;;4897135;29;20227;-63